createdAt,value
2018-09-09T00:00:57.525Z,1003.43
2018-09-09T00:02:02.108Z,1003.41
2018-09-09T00:03:16.588Z,1003.43
2018-09-09T00:04:16.517Z,1003.46
2018-09-09T00:05:20.248Z,1003.43
2018-09-09T00:06:17.652Z,1003.4
2018-09-09T00:07:15.035Z,1003.41
2018-09-09T00:08:16.677Z,1003.38
2018-09-09T00:09:24.196Z,1003.37
2018-09-09T00:10:22.267Z,1003.33
2018-09-09T00:11:19.770Z,1003.37
2018-09-09T00:12:20.016Z,1003.37
2018-09-09T00:13:14.630Z,1003.3
2018-09-09T00:14:25.459Z,1003.35
2018-09-09T00:15:28.894Z,1003.35
2018-09-09T00:16:34.154Z,1003.33
2018-09-09T00:17:31.910Z,1003.32
2018-09-09T00:18:32.880Z,1003.32
2018-09-09T00:19:33.778Z,1003.26
2018-09-09T00:20:43.984Z,1003.32
2018-09-09T00:21:41.885Z,1003.33
2018-09-09T00:22:47.691Z,1003.3
2018-09-09T00:23:47.177Z,1003.37
2018-09-09T00:24:45.168Z,1003.37
2018-09-09T00:26:03.310Z,1003.35
2018-09-09T00:26:59.866Z,1003.38
2018-09-09T00:28:10.140Z,1003.4
2018-09-09T00:29:08.828Z,1003.2
2018-09-09T00:30:06.683Z,1003.3
2018-09-09T00:31:12.725Z,1003.35
2018-09-09T00:32:10.430Z,1003.26
2018-09-09T00:33:10.171Z,1003.32
2018-09-09T00:34:09.368Z,1003.24
2018-09-09T00:35:08.001Z,1003.32
2018-09-09T00:36:02.909Z,1003.32
2018-09-09T00:37:16.300Z,1003.35
2018-09-09T00:38:12.911Z,1003.2
2018-09-09T00:39:11.004Z,1003.26
2018-09-09T00:40:11.228Z,1003.32
2018-09-09T00:41:06.198Z,1003.47
2018-09-09T00:42:04.838Z,1003.44
2018-09-09T00:43:12.336Z,1003.37
2018-09-09T00:44:11.039Z,1003.37
2018-09-09T00:45:09.178Z,1003.35
2018-09-09T00:46:07.105Z,1003.21
2018-09-09T00:47:05.424Z,1003.35
2018-09-09T00:48:03.101Z,1003.32
2018-09-09T00:49:02.002Z,1003.24
2018-09-09T00:50:00.944Z,1003.18
2018-09-09T00:51:11.159Z,1003.14
2018-09-09T00:52:07.388Z,1003.2
2018-09-09T00:53:07.306Z,1003.26
2018-09-09T00:54:05.438Z,1003.33
2018-09-09T00:55:06.747Z,1003.33
2018-09-09T00:56:04.682Z,1003.32
2018-09-09T00:57:06.057Z,1003.32
2018-09-09T00:58:04.855Z,1003.24
2018-09-09T00:59:00.562Z,1003.3
2018-09-09T01:00:02.953Z,1003.23
2018-09-09T01:01:06.082Z,1003.4
2018-09-09T01:02:06.767Z,1003.37
2018-09-09T01:03:01.392Z,1003.41
2018-09-09T01:04:06.905Z,1003.4
2018-09-09T01:05:02.091Z,1003.32
2018-09-09T01:06:12.300Z,1003.32
2018-09-09T01:07:35.270Z,1003.23
2018-09-09T01:08:32.096Z,1003.26
2018-09-09T01:09:30.000Z,1003.33
2018-09-09T01:10:28.671Z,1003.32
2018-09-09T01:11:36.163Z,1003.33
2018-09-09T01:12:31.163Z,1003.2
2018-09-09T01:13:31.251Z,1003.3
2018-09-09T01:14:33.345Z,1003.33
2018-09-09T01:15:31.264Z,1003.35
2018-09-09T01:16:33.469Z,1003.26
2018-09-09T01:17:28.916Z,1003.33
2018-09-09T01:18:26.142Z,1003.2
2018-09-09T01:19:28.758Z,1003.32
2018-09-09T01:20:42.375Z,1003.21
2018-09-09T01:21:42.648Z,1003.23
2018-09-09T01:22:42.323Z,1003.21
2018-09-09T01:23:50.942Z,1003.09
2018-09-09T01:24:49.386Z,1003.14
2018-09-09T01:25:54.975Z,1003.05
2018-09-09T01:26:57.812Z,1003.02
2018-09-09T01:27:56.057Z,1003.08
2018-09-09T01:28:58.507Z,1003.02
2018-09-09T01:29:57.897Z,1003.09
2018-09-09T01:31:09.443Z,1003.04
2018-09-09T01:32:10.086Z,1003.05
2018-09-09T01:33:10.178Z,1003.14
2018-09-09T01:34:10.016Z,1003.17
2018-09-09T01:35:08.154Z,1003.11
2018-09-09T01:36:07.701Z,1003.14
2018-09-09T01:37:07.494Z,1003.17
2018-09-09T01:38:06.462Z,1003.14
2018-09-09T01:39:08.468Z,1003.2
2018-09-09T01:40:02.877Z,1003.26
2018-09-09T01:41:15.556Z,1003.2
2018-09-09T01:42:14.005Z,1003.35
2018-09-09T01:42:49.617Z,1003.35
2018-09-09T01:43:49.336Z,1003.24
2018-09-09T01:44:49.264Z,1003.37
2018-09-09T01:45:47.131Z,1003.35
2018-09-09T01:46:43.473Z,1003.39
2018-09-09T01:47:43.926Z,1003.39
2018-09-09T01:48:46.947Z,1003.39
2018-09-09T01:49:45.784Z,1003.39
2018-09-09T01:50:58.830Z,1003.42
2018-09-09T01:52:09.708Z,1003.41
2018-09-09T01:53:04.869Z,1003.3
2018-09-09T01:54:05.620Z,1003.42
2018-09-09T01:55:03.998Z,1003.36
2018-09-09T01:56:01.647Z,1003.41
2018-09-09T01:57:03.517Z,1003.34
2018-09-09T01:57:59.128Z,1003.34
2018-09-09T01:59:02.608Z,1003.39
2018-09-09T02:00:01.408Z,1003.39
2018-09-09T02:01:02.676Z,1003.44
2018-09-09T02:02:14.483Z,1003.41
2018-09-09T02:03:09.497Z,1003.38
2018-09-09T02:04:07.160Z,1003.45
2018-09-09T02:05:05.398Z,1003.41
2018-09-09T02:06:08.250Z,1003.41
2018-09-09T02:07:09.082Z,1003.32
2018-09-09T02:08:08.176Z,1003.33
2018-09-09T02:09:27.591Z,1003.41
2018-09-09T02:10:26.057Z,1003.34
2018-09-09T02:11:26.339Z,1003.39
2018-09-09T02:12:25.856Z,1003.36
2018-09-09T02:13:29.736Z,1003.34
2018-09-09T02:14:40.956Z,1003.34
2018-09-09T02:15:43.431Z,1003.31
2018-09-09T02:16:44.970Z,1003.35
2018-09-09T02:17:40.630Z,1003.31
2018-09-09T02:18:59.305Z,1003.34
2018-09-09T02:19:55.902Z,1003.35
2018-09-09T02:20:54.250Z,1003.3
2018-09-09T02:21:56.534Z,1003.33
2018-09-09T02:22:54.893Z,1003.36
2018-09-09T02:23:57.539Z,1003.34
2018-09-09T02:24:55.426Z,1003.36
2018-09-09T02:25:55.317Z,1003.38
2018-09-09T02:26:50.499Z,1003.33
2018-09-09T02:27:53.984Z,1003.35
2018-09-09T02:28:54.423Z,1003.3
2018-09-09T02:29:52.570Z,1003.26
2018-09-09T02:31:04.639Z,1003.33
2018-09-09T02:32:00.318Z,1003.18
2018-09-09T02:33:06.206Z,1003.21
2018-09-09T02:34:14.697Z,1003.3
2018-09-09T02:35:10.429Z,1003.32
2018-09-09T02:36:15.731Z,1003.3
2018-09-09T02:37:12.269Z,1003.21
2018-09-09T02:38:12.775Z,1003.17
2018-09-09T02:39:11.036Z,1003.2
2018-09-09T02:40:09.213Z,1003.2
2018-09-09T02:41:06.930Z,1003.11
2018-09-09T02:42:14.304Z,1003.18
2018-09-09T02:43:26.282Z,1003.36
2018-09-09T02:44:26.479Z,1003.31
2018-09-09T02:45:24.850Z,1003.36
2018-09-09T02:46:23.124Z,1003.33
2018-09-09T02:47:30.272Z,1003.33
2018-09-09T02:48:31.411Z,1003.34
2018-09-09T02:49:30.165Z,1003.38
2018-09-09T02:50:27.794Z,1003.35
2018-09-09T02:51:27.300Z,1003.38
2018-09-09T02:52:47.369Z,1003.36
2018-09-09T02:53:51.285Z,1003.21
2018-09-09T02:55:03.027Z,1003.33
2018-09-09T02:56:00.514Z,1003.3
2018-09-09T02:57:10.390Z,1003.3
2018-09-09T02:58:07.874Z,1003.23
2018-09-09T02:59:05.862Z,1003.33
2018-09-09T03:00:03.702Z,1003.38
2018-09-09T03:01:02.573Z,1003.41
2018-09-09T03:02:00.667Z,1003.38
2018-09-09T03:03:04.085Z,1003.38
2018-09-09T03:04:03.956Z,1003.36
2018-09-09T03:05:01.562Z,1003.35
2018-09-09T03:05:57.124Z,1003.39
2018-09-09T03:07:01.298Z,1003.36
2018-09-09T03:07:59.576Z,1003.3
2018-09-09T03:08:59.231Z,1003.31
2018-09-09T03:10:00.118Z,1003.26
2018-09-09T03:10:54.737Z,1003.21
2018-09-09T03:12:17.897Z,1003.23
2018-09-09T03:13:15.180Z,1003.24
2018-09-09T03:14:22.369Z,1003.14
2018-09-09T03:15:22.455Z,1003.18
2018-09-09T03:16:22.075Z,1003.14
2018-09-09T03:17:23.568Z,1003.23
2018-09-09T03:18:21.146Z,1003.24
2018-09-09T03:19:30.121Z,1003.31
2018-09-09T03:20:29.709Z,1003.35
2018-09-09T03:21:28.037Z,1003.3
2018-09-09T03:22:27.233Z,1003.36
2018-09-09T03:23:25.121Z,1003.31
2018-09-09T03:24:41.930Z,1003.21
2018-09-09T03:25:40.300Z,1003.21
2018-09-09T03:26:38.085Z,1003.15
2018-09-09T03:27:36.916Z,1003.11
2018-09-09T03:28:37.685Z,1003.14
2018-09-09T03:29:36.831Z,1003.12
2018-09-09T03:30:40.763Z,1003.12
2018-09-09T03:31:47.441Z,1003.24
2018-09-09T03:32:52.790Z,1003.23
2018-09-09T03:33:52.261Z,1003.09
2018-09-09T03:34:48.573Z,1003.08
2018-09-09T03:36:01.022Z,1002.99
2018-09-09T03:36:55.694Z,1002.97
2018-09-09T03:37:55.941Z,1002.89
2018-09-09T03:38:56.970Z,1003.03
2018-09-09T03:39:56.654Z,1003.05
2018-09-09T03:40:55.223Z,1003.06
2018-09-09T03:41:54.161Z,1003.18
2018-09-09T03:42:52.584Z,1003.21
2018-09-09T03:43:50.930Z,1003.18
2018-09-09T03:44:47.033Z,1003.25
2018-09-09T03:45:47.496Z,1003.21
2018-09-09T03:46:45.359Z,1003.35
2018-09-09T03:47:43.597Z,1003.24
2018-09-09T03:48:45.619Z,1003.21
2018-09-09T03:49:53.249Z,1003.25
2018-09-09T03:50:50.656Z,1003.42
2018-09-09T03:52:02.791Z,1003.42
2018-09-09T03:52:58.551Z,1003.42
2018-09-09T03:53:56.619Z,1003.44
2018-09-09T03:54:59.199Z,1003.47
2018-09-09T03:56:04.368Z,1003.38
2018-09-09T03:57:05.815Z,1003.39
2018-09-09T03:58:06.768Z,1003.34
2018-09-09T03:59:05.634Z,1003.42
2018-09-09T04:00:04.566Z,1003.36
2018-09-09T04:01:03.422Z,1003.38
2018-09-09T04:02:09.753Z,1003.38
2018-09-09T04:03:20.488Z,1003.39
2018-09-09T04:04:18.442Z,1003.38
2018-09-09T04:05:16.278Z,1003.31
2018-09-09T04:06:15.590Z,1003.31
2018-09-09T04:07:13.120Z,1003.39
2018-09-09T04:08:14.309Z,1003.33
2018-09-09T04:09:13.421Z,1003.34
2018-09-09T04:10:11.978Z,1003.36
2018-09-09T04:11:15.568Z,1003.3
2018-09-09T04:12:15.194Z,1003.31
2018-09-09T04:13:16.456Z,1003.33
2018-09-09T04:14:13.629Z,1003.24
2018-09-09T04:15:24.357Z,1003.21
2018-09-09T04:16:23.509Z,1003.16
2018-09-09T04:17:21.390Z,1003.15
2018-09-09T04:18:21.828Z,1003.18
2018-09-09T04:19:20.373Z,1003.09
2018-09-09T04:20:18.566Z,1003.19
2018-09-09T04:21:17.057Z,1003.11
2018-09-09T04:22:13.670Z,1003.15
2018-09-09T04:23:14.120Z,1003.15
2018-09-09T04:24:12.149Z,1003.15
2018-09-09T04:25:10.930Z,1003.11
2018-09-09T04:26:09.980Z,1003.12
2018-09-09T04:27:08.890Z,1003.19
2018-09-09T04:28:08.056Z,1003.18
2018-09-09T04:29:19.400Z,1003.31
2018-09-09T04:30:17.015Z,1003.25
2018-09-09T04:31:16.243Z,1003.33
2018-09-09T04:32:31.663Z,1003.34
2018-09-09T04:33:26.257Z,1003.38
2018-09-09T04:34:36.915Z,1003.35
2018-09-09T04:35:35.574Z,1003.3
2018-09-09T04:36:40.101Z,1003.3
2018-09-09T04:37:38.076Z,1003.39
2018-09-09T04:38:36.079Z,1003.33
2018-09-09T04:39:34.471Z,1003.3
2018-09-09T04:40:39.423Z,1003.31
2018-09-09T04:41:38.306Z,1003.41
2018-09-09T04:42:33.458Z,1003.42
2018-09-09T04:43:47.464Z,1003.38
2018-09-09T04:44:44.690Z,1003.44
2018-09-09T04:45:42.568Z,1003.44
2018-09-09T04:46:40.733Z,1003.39
2018-09-09T04:47:40.995Z,1003.49
2018-09-09T04:48:38.635Z,1003.38
2018-09-09T04:49:38.649Z,1003.39
2018-09-09T04:50:40.444Z,1003.51
2018-09-09T04:51:45.964Z,1003.46
2018-09-09T04:52:44.842Z,1003.46
2018-09-09T04:53:44.807Z,1003.45
2018-09-09T04:54:56.836Z,1003.45
2018-09-09T04:55:51.920Z,1003.46
2018-09-09T04:56:52.350Z,1003.54
2018-09-09T04:57:50.700Z,1003.49
2018-09-09T04:58:48.689Z,1003.49
2018-09-09T04:59:49.953Z,1003.54
2018-09-09T05:00:48.139Z,1003.54
2018-09-09T05:01:51.341Z,1003.48
2018-09-09T05:02:53.094Z,1003.44
2018-09-09T05:03:57.337Z,1003.51
2018-09-09T05:05:02.393Z,1003.54
2018-09-09T05:06:01.034Z,1003.49
2018-09-09T05:06:59.367Z,1003.48
2018-09-09T05:07:58.231Z,1003.49
2018-09-09T05:09:06.067Z,1003.55
2018-09-09T05:10:05.466Z,1003.49
2018-09-09T05:11:29.313Z,1003.51
2018-09-09T05:12:24.827Z,1003.54
2018-09-09T05:13:22.759Z,1003.46
2018-09-09T05:14:23.447Z,1003.45
2018-09-09T05:15:24.046Z,1003.49
2018-09-09T05:16:21.980Z,1003.58
2018-09-09T05:17:22.501Z,1003.46
2018-09-09T05:18:20.928Z,1003.46
2018-09-09T05:19:19.709Z,1003.52
2018-09-09T05:20:24.935Z,1003.55
2018-09-09T05:21:43.417Z,1003.55
2018-09-09T05:22:45.725Z,1003.54
2018-09-09T05:23:45.484Z,1003.64
2018-09-09T05:24:47.688Z,1003.63
2018-09-09T05:25:45.330Z,1003.63
2018-09-09T05:26:43.624Z,1003.51
2018-09-09T05:27:43.155Z,1003.69
2018-09-09T05:28:40.714Z,1003.6
2018-09-09T05:29:42.254Z,1003.63
2018-09-09T05:30:40.959Z,1003.58
2018-09-09T05:31:48.454Z,1003.66
2018-09-09T05:32:45.355Z,1003.6
2018-09-09T05:33:57.741Z,1003.54
2018-09-09T05:34:54.546Z,1003.54
2018-09-09T05:35:52.225Z,1003.46
2018-09-09T05:36:50.491Z,1003.61
2018-09-09T05:37:49.173Z,1003.57
2018-09-09T05:38:48.106Z,1003.64
2018-09-09T05:39:46.972Z,1003.57
2018-09-09T05:40:50.477Z,1003.67
2018-09-09T05:41:49.614Z,1003.69
2018-09-09T05:42:47.275Z,1003.73
2018-09-09T05:43:45.410Z,1003.57
2018-09-09T05:44:42.379Z,1003.69
2018-09-09T05:45:55.241Z,1003.69
2018-09-09T05:46:53.923Z,1003.7
2018-09-09T05:47:53.970Z,1003.74
2018-09-09T05:48:51.658Z,1003.7
2018-09-09T05:49:52.753Z,1003.7
2018-09-09T05:50:57.709Z,1003.7
2018-09-09T05:51:55.451Z,1003.74
2018-09-09T05:52:53.207Z,1003.82
2018-09-09T05:53:56.752Z,1003.67
2018-09-09T05:54:55.231Z,1003.73
2018-09-09T05:55:57.672Z,1003.74
2018-09-09T05:56:58.406Z,1003.77
2018-09-09T05:57:54.379Z,1003.71
2018-09-09T05:59:08.999Z,1003.92
2018-09-09T06:00:09.821Z,1003.88
2018-09-09T06:01:08.071Z,1003.85
2018-09-09T06:02:06.267Z,1003.91
2018-09-09T06:03:05.892Z,1003.95
2018-09-09T06:04:07.635Z,1003.99
2018-09-09T06:05:08.839Z,1003.92
2018-09-09T06:06:07.248Z,1003.95
2018-09-09T06:07:05.561Z,1003.79
2018-09-09T06:08:07.056Z,1003.89
2018-09-09T06:09:06.240Z,1003.94
2018-09-09T06:10:14.907Z,1003.91
2018-09-09T06:11:09.815Z,1003.98
2018-09-09T06:12:17.491Z,1003.92
2018-09-09T06:13:34.718Z,1003.96
2018-09-09T06:14:32.613Z,1004.02
2018-09-09T06:15:36.912Z,1003.95
2018-09-09T06:16:38.356Z,1004.08
2018-09-09T06:17:36.818Z,1004.04
2018-09-09T06:18:39.220Z,1004.04
2018-09-09T06:19:37.841Z,1004.05
2018-09-09T06:20:38.105Z,1004.04
2018-09-09T06:21:37.602Z,1004.04
2018-09-09T06:22:41.334Z,1004.05
2018-09-09T06:23:37.387Z,1004.04
2018-09-09T06:24:53.358Z,1004.04
2018-09-09T06:25:51.817Z,1004.04
2018-09-09T06:27:00.141Z,1004.1
2018-09-09T06:27:58.157Z,1004.07
2018-09-09T06:28:59.377Z,1004.08
2018-09-09T06:29:54.930Z,1004.05
2018-09-09T06:30:56.089Z,1004.1
2018-09-09T06:31:56.870Z,1004.02
2018-09-09T06:32:57.391Z,1004.07
2018-09-09T06:33:55.349Z,1004.07
2018-09-09T06:35:15.936Z,1004.13
2018-09-09T06:36:02.409Z,1004.01
2018-09-09T06:37:02.158Z,1004.11
2018-09-09T06:38:02.159Z,1004.04
2018-09-09T06:38:59.974Z,1004.04
2018-09-09T06:39:58.603Z,1004.05
2018-09-09T06:40:57.484Z,1004.13
2018-09-09T06:41:55.512Z,1004.13
2018-09-09T06:42:57.478Z,1004.04
2018-09-09T06:43:53.595Z,1004.17
2018-09-09T06:45:06.573Z,1004.08
2018-09-09T06:46:03.684Z,1004.02
2018-09-09T06:47:08.919Z,1003.99
2018-09-09T06:48:06.654Z,1004.14
2018-09-09T06:49:05.793Z,1004.04
2018-09-09T06:50:10.949Z,1004.04
2018-09-09T06:51:09.110Z,1004.1
2018-09-09T06:52:10.386Z,1004.08
2018-09-09T06:53:14.022Z,1004.16
2018-09-09T06:54:10.409Z,1004.08
2018-09-09T06:55:22.812Z,1004.07
2018-09-09T06:56:20.058Z,1004.08
2018-09-09T06:57:22.582Z,1004.11
2018-09-09T06:58:25.534Z,1004.11
2018-09-09T06:59:24.241Z,1004.13
2018-09-09T07:00:26.545Z,1004.08
2018-09-09T07:01:40.791Z,1004.14
2018-09-09T07:02:38.382Z,1004.1
2018-09-09T07:03:37.098Z,1004.17
2018-09-09T07:04:40.208Z,1004.07
2018-09-09T07:05:38.109Z,1004.07
2018-09-09T07:06:36.380Z,1004.14
2018-09-09T07:07:34.944Z,1004.02
2018-09-09T07:08:37.193Z,1004.07
2018-09-09T07:09:35.022Z,1004.05
2018-09-09T07:10:34.415Z,1004.14
2018-09-09T07:11:34.018Z,1004.14
2018-09-09T07:12:50.536Z,1004.2
2018-09-09T07:13:46.911Z,1004.11
2018-09-09T07:14:47.909Z,1004.1
2018-09-09T07:15:50.293Z,1004.19
2018-09-09T07:16:47.516Z,1004.2
2018-09-09T07:17:50.405Z,1004.23
2018-09-09T07:18:51.310Z,1004.22
2018-09-09T07:19:48.943Z,1004.16
2018-09-09T07:20:50.000Z,1004.29
2018-09-09T07:21:50.383Z,1004.25
2018-09-09T07:22:47.456Z,1004.23
2018-09-09T07:23:50.852Z,1004.27
2018-09-09T07:24:52.113Z,1004.22
2018-09-09T07:26:04.691Z,1004.24
2018-09-09T07:27:02.197Z,1004.26
2018-09-09T07:28:12.555Z,1004.22
2018-09-09T07:29:13.170Z,1004.24
2018-09-09T07:30:12.993Z,1004.29
2018-09-09T07:31:10.447Z,1004.27
2018-09-09T07:32:08.009Z,1004.26
2018-09-09T07:33:05.651Z,1004.26
2018-09-09T07:34:04.643Z,1004.33
2018-09-09T07:35:02.550Z,1004.26
2018-09-09T07:36:05.979Z,1004.32
2018-09-09T07:37:07.720Z,1004.39
2018-09-09T07:38:20.606Z,1004.32
2018-09-09T07:39:38.671Z,1004.25
2018-09-09T07:40:40.874Z,1004.27
2018-09-09T07:41:40.844Z,1004.3
2018-09-09T07:42:39.568Z,1004.29
2018-09-09T07:43:37.967Z,1004.23
2018-09-09T07:44:36.268Z,1004.33
2018-09-09T07:45:35.144Z,1004.41
2018-09-09T07:46:43.533Z,1004.36
2018-09-09T07:47:51.887Z,1004.39
2018-09-09T07:48:50.791Z,1004.41
2018-09-09T07:49:50.374Z,1004.29
2018-09-09T07:51:07.813Z,1004.32
2018-09-09T07:52:14.606Z,1004.38
2018-09-09T07:53:12.209Z,1004.45
2018-09-09T07:54:09.894Z,1004.39
2018-09-09T07:55:07.530Z,1004.36
2018-09-09T07:56:05.052Z,1004.38
2018-09-09T07:57:10.341Z,1004.31
2018-09-09T07:58:11.676Z,1004.41
2018-09-09T07:59:08.015Z,1004.32
2018-09-09T08:00:12.132Z,1004.44
2018-09-09T08:01:11.099Z,1004.33
2018-09-09T08:02:09.906Z,1004.45
2018-09-09T08:03:14.275Z,1004.47
2018-09-09T08:04:26.215Z,1004.45
2018-09-09T08:05:27.447Z,1004.5
2018-09-09T08:06:25.304Z,1004.44
2018-09-09T08:07:26.959Z,1004.57
2018-09-09T08:08:26.490Z,1004.51
2018-09-09T08:09:28.641Z,1004.48
2018-09-09T08:10:28.394Z,1004.5
2018-09-09T08:11:28.770Z,1004.5
2018-09-09T08:12:27.330Z,1004.45
2018-09-09T08:13:26.161Z,1004.47
2018-09-09T08:14:25.121Z,1004.5
2018-09-09T08:15:27.704Z,1004.44
2018-09-09T08:16:23.941Z,1004.48
2018-09-09T08:17:24.307Z,1004.36
2018-09-09T08:18:26.227Z,1004.44
2018-09-09T08:19:23.714Z,1004.42
2018-09-09T08:20:14.575Z,1004.45
2018-09-09T08:21:10.635Z,1004.44
2018-09-09T08:22:12.783Z,1004.47
2018-09-09T08:23:11.858Z,1004.48
2018-09-09T08:24:12.484Z,1004.47
2018-09-09T08:25:11.858Z,1004.36
2018-09-09T08:26:13.820Z,1004.36
2018-09-09T08:27:13.676Z,1004.38
2018-09-09T08:28:11.685Z,1004.47
2018-09-09T08:29:10.470Z,1004.42
2018-09-09T08:30:09.453Z,1004.44
2018-09-09T08:31:05.530Z,1004.41
2018-09-09T08:32:20.466Z,1004.41
2018-09-09T08:33:15.440Z,1004.42
2018-09-09T08:34:23.834Z,1004.45
2018-09-09T08:35:22.469Z,1004.41
2018-09-09T08:36:30.165Z,1004.39
2018-09-09T08:37:30.046Z,1004.44
2018-09-09T08:38:42.378Z,1004.53
2018-09-09T08:39:46.331Z,1004.44
2018-09-09T08:40:43.987Z,1004.5
2018-09-09T08:41:42.004Z,1004.41
2018-09-09T08:42:41.517Z,1004.48
2018-09-09T08:43:42.972Z,1004.51
2018-09-09T08:44:55.710Z,1004.48
2018-09-09T08:45:54.828Z,1004.47
2018-09-09T08:47:13.452Z,1004.48
2018-09-09T08:48:17.969Z,1004.56
2018-09-09T08:49:16.590Z,1004.54
2018-09-09T08:50:16.061Z,1004.59
2018-09-09T08:51:10.922Z,1004.62
2018-09-09T08:52:13.547Z,1004.54
2018-09-09T08:53:11.560Z,1004.62
2018-09-09T08:54:16.767Z,1004.66
2018-09-09T08:55:11.993Z,1004.63
2018-09-09T08:56:34.567Z,1004.53
2018-09-09T08:57:25.632Z,1004.51
2018-09-09T08:58:23.958Z,1004.53
2018-09-09T08:59:21.871Z,1004.5
2018-09-09T09:00:19.695Z,1004.5
2018-09-09T09:01:24.099Z,1004.57
2018-09-09T09:02:25.272Z,1004.5
2018-09-09T09:03:24.695Z,1004.54
2018-09-09T09:04:25.482Z,1004.54
2018-09-09T09:05:24.712Z,1004.57
2018-09-09T09:06:21.643Z,1004.48
2018-09-09T09:07:40.085Z,1004.44
2018-09-09T09:08:39.578Z,1004.48
2018-09-09T09:09:40.532Z,1004.4
2018-09-09T09:10:40.032Z,1004.53
2018-09-09T09:11:38.305Z,1004.54
2018-09-09T09:12:37.027Z,1004.54
2018-09-09T09:13:35.647Z,1004.56
2018-09-09T09:14:36.111Z,1004.6
2018-09-09T09:15:34.013Z,1004.51
2018-09-09T09:16:37.327Z,1004.56
2018-09-09T09:17:38.913Z,1004.53
2018-09-09T09:18:33.753Z,1004.56
2018-09-09T09:19:35.566Z,1004.47
2018-09-09T09:20:33.934Z,1004.48
2018-09-09T09:21:40.078Z,1004.5
2018-09-09T09:22:57.461Z,1004.45
2018-09-09T09:23:53.078Z,1004.54
2018-09-09T09:24:56.855Z,1004.43
2018-09-09T09:26:01.071Z,1004.57
2018-09-09T09:26:59.793Z,1004.54
2018-09-09T09:28:00.756Z,1004.48
2018-09-09T09:28:58.496Z,1004.44
2018-09-09T09:29:57.231Z,1004.47
2018-09-09T09:30:55.668Z,1004.57
2018-09-09T09:31:55.076Z,1004.5
2018-09-09T09:32:50.690Z,1004.54
2018-09-09T09:33:48.998Z,1004.49
2018-09-09T09:34:46.889Z,1004.56
2018-09-09T09:35:47.013Z,1004.57
2018-09-09T09:36:50.446Z,1004.56
2018-09-09T09:38:02.374Z,1004.43
2018-09-09T09:38:57.873Z,1004.46
2018-09-09T09:40:03.420Z,1004.46
2018-09-09T09:41:03.257Z,1004.47
2018-09-09T09:42:04.220Z,1004.49
2018-09-09T09:43:05.693Z,1004.4
2018-09-09T09:44:04.063Z,1004.41
2018-09-09T09:44:58.866Z,1004.44
2018-09-09T09:46:00.803Z,1004.38
2018-09-09T09:46:58.423Z,1004.56
2018-09-09T09:47:54.327Z,1004.47
2018-09-09T09:48:55.493Z,1004.59
2018-09-09T09:50:11.252Z,1004.58
2018-09-09T09:51:08.365Z,1004.53
2018-09-09T09:52:19.598Z,1004.62
2018-09-09T09:53:18.788Z,1004.53
2018-09-09T09:54:19.054Z,1004.62
2018-09-09T09:55:20.241Z,1004.72
2018-09-09T09:56:19.766Z,1004.61
2018-09-09T09:57:18.786Z,1004.68
2018-09-09T09:58:17.914Z,1004.67
2018-09-09T09:59:16.554Z,1004.58
2018-09-09T10:00:14.606Z,1004.62
2018-09-09T10:01:09.145Z,1004.59
2018-09-09T10:02:23.213Z,1004.55
2018-09-09T10:03:21.379Z,1004.61
2018-09-09T10:04:20.829Z,1004.55
2018-09-09T10:05:30.990Z,1004.62
2018-09-09T10:06:30.112Z,1004.65
2018-09-09T10:07:29.024Z,1004.61
2018-09-09T10:08:31.730Z,1004.56
2018-09-09T10:09:31.456Z,1004.58
2018-09-09T10:10:29.875Z,1004.61
2018-09-09T10:11:29.388Z,1004.58
2018-09-09T10:12:27.023Z,1004.61
2018-09-09T10:13:26.360Z,1004.67
2018-09-09T10:14:26.155Z,1004.64
2018-09-09T10:15:39.926Z,1004.59
2018-09-09T10:16:44.730Z,1004.64
2018-09-09T10:17:45.337Z,1004.6
2018-09-09T10:18:43.321Z,1004.52
2018-09-09T10:19:40.968Z,1004.6
2018-09-09T10:20:39.234Z,1004.55
2018-09-09T10:21:36.677Z,1004.54
2018-09-09T10:22:34.805Z,1004.57
2018-09-09T10:23:38.513Z,1004.63
2018-09-09T10:24:36.692Z,1004.63
2018-09-09T10:25:35.576Z,1004.58
2018-09-09T10:26:35.477Z,1004.64
2018-09-09T10:27:33.353Z,1004.73
2018-09-09T10:28:31.082Z,1004.7
2018-09-09T10:29:32.519Z,1004.72
2018-09-09T10:30:45.404Z,1004.78
2018-09-09T10:31:42.127Z,1004.72
2018-09-09T10:32:40.386Z,1004.81
2018-09-09T10:33:38.789Z,1004.69
2018-09-09T10:34:36.693Z,1004.72
2018-09-09T10:35:35.314Z,1004.66
2018-09-09T10:36:34.951Z,1004.73
2018-09-09T10:37:34.989Z,1004.76
2018-09-09T10:38:34.493Z,1004.75
2018-09-09T10:39:34.194Z,1004.67
2018-09-09T10:40:34.227Z,1004.64
2018-09-09T10:41:32.217Z,1004.69
2018-09-09T10:42:44.281Z,1004.66
2018-09-09T10:43:42.276Z,1004.67
2018-09-09T10:44:42.745Z,1004.7
2018-09-09T10:45:40.886Z,1004.7
2018-09-09T10:46:38.582Z,1004.76
2018-09-09T10:47:37.705Z,1004.7
2018-09-09T10:48:35.362Z,1004.72
2018-09-09T10:49:35.967Z,1004.86
2018-09-09T10:50:35.062Z,1004.77
2018-09-09T10:51:29.538Z,1004.83
2018-09-09T10:52:28.244Z,1004.8
2018-09-09T10:53:26.492Z,1004.76
2018-09-09T10:54:38.666Z,1004.76
2018-09-09T10:55:37.659Z,1004.84
2018-09-09T10:56:38.069Z,1004.84
2018-09-09T10:57:38.296Z,1004.75
2018-09-09T10:58:39.916Z,1004.76
2018-09-09T10:59:37.821Z,1004.78
2018-09-09T11:00:41.279Z,1004.75
2018-09-09T11:01:40.297Z,1004.73
2018-09-09T11:02:42.874Z,1004.77
2018-09-09T11:03:40.232Z,1004.72
2018-09-09T11:04:54.928Z,1004.66
2018-09-09T11:05:50.987Z,1004.71
2018-09-09T11:06:50.397Z,1004.71
2018-09-09T11:07:54.531Z,1004.63
2018-09-09T11:08:56.117Z,1004.68
2018-09-09T11:10:01.528Z,1004.59
2018-09-09T11:10:59.582Z,1004.59
2018-09-09T11:11:57.249Z,1004.65
2018-09-09T11:13:04.089Z,1004.57
2018-09-09T11:14:02.076Z,1004.59
2018-09-09T11:14:56.835Z,1004.59
2018-09-09T11:15:54.837Z,1004.63
2018-09-09T11:17:06.608Z,1004.75
2018-09-09T11:18:03.684Z,1004.66
2018-09-09T11:19:02.550Z,1004.75
2018-09-09T11:20:02.400Z,1004.62
2018-09-09T11:21:00.556Z,1004.74
2018-09-09T11:21:58.476Z,1004.71
2018-09-09T11:23:00.599Z,1004.65
2018-09-09T11:24:01.044Z,1004.69
2018-09-09T11:24:57.380Z,1004.65
2018-09-09T11:25:59.050Z,1004.77
2018-09-09T11:26:57.501Z,1004.68
2018-09-09T11:27:54.459Z,1004.6
2018-09-09T11:29:11.170Z,1004.65
2018-09-09T11:30:07.905Z,1004.62
2018-09-09T11:31:09.405Z,1004.62
2018-09-09T11:32:10.768Z,1004.57
2018-09-09T11:33:09.945Z,1004.57
2018-09-09T11:34:07.709Z,1004.57
2018-09-09T11:35:09.303Z,1004.49
2018-09-09T11:36:10.260Z,1004.55
2018-09-09T11:37:11.450Z,1004.52
2018-09-09T11:38:09.415Z,1004.5
2018-09-09T11:39:07.071Z,1004.55
2018-09-09T11:40:03.323Z,1004.44
2018-09-09T11:41:18.303Z,1004.47
2018-09-09T11:42:13.229Z,1004.46
2018-09-09T11:43:19.291Z,1004.44
2018-09-09T11:44:18.862Z,1004.46
2018-09-09T11:45:21.096Z,1004.43
2018-09-09T11:46:19.025Z,1004.43
2018-09-09T11:47:20.658Z,1004.44
2018-09-09T11:48:19.589Z,1004.61
2018-09-09T11:49:17.854Z,1004.46
2018-09-09T11:50:19.235Z,1004.49
2018-09-09T11:51:15.986Z,1004.43
2018-09-09T11:52:31.050Z,1004.53
2018-09-09T11:53:25.804Z,1004.35
2018-09-09T11:54:24.001Z,1004.41
2018-09-09T11:55:23.354Z,1004.41
2018-09-09T11:56:21.958Z,1004.46
2018-09-09T11:57:21.045Z,1004.43
2018-09-09T11:58:22.751Z,1004.47
2018-09-09T11:59:21.593Z,1004.46
2018-09-09T12:00:23.219Z,1004.47
2018-09-09T12:01:23.770Z,1004.34
2018-09-09T12:02:21.306Z,1004.36
2018-09-09T12:03:34.029Z,1004.42
2018-09-09T12:04:32.519Z,1004.33
2018-09-09T12:05:35.892Z,1004.31
2018-09-09T12:06:33.626Z,1004.34
2018-09-09T12:07:35.289Z,1004.28
2018-09-09T12:08:33.462Z,1004.37
2018-09-09T12:09:31.013Z,1004.42
2018-09-09T12:10:30.578Z,1004.31
2018-09-09T12:11:28.931Z,1004.39
2018-09-09T12:12:27.332Z,1004.33
2018-09-09T12:13:26.228Z,1004.37
2018-09-09T12:14:24.811Z,1004.36
2018-09-09T12:15:22.355Z,1004.39
2018-09-09T12:16:24.694Z,1004.39
2018-09-09T12:17:37.209Z,1004.44
2018-09-09T12:18:34.693Z,1004.39
2018-09-09T12:19:32.435Z,1004.39
2018-09-09T12:20:31.923Z,1004.43
2018-09-09T12:21:33.009Z,1004.36